Time;durP1;ratioP1;P1;durP2;ratioP2;P2;SDS_P1;SDS_P2;PMS_P1;PMS_P2;Temp;Humidity;BMP_temperature;BMP_pressure;BME280_temperature;BME280_humidity;BME280_pressure;Samples;Min_cycle;Max_cycle;Signal;HPM_P1;HPM_P2
2022/01/08 00:02:07;;;;;;;;;;;0.90;99.90;;;;;;5135292;27;19959;-56
2022/01/08 00:04:32;;;;;;;;;;;0.90;99.90;;;;;;5139336;27;19927;-56
2022/01/08 00:06:58;;;;;;;;;;;0.90;99.90;;;;;;5142987;27;19927;-56
2022/01/08 00:09:23;;;;;;;;;;;0.90;99.90;;;;;;5144130;27;19927;-57
2022/01/08 00:11:49;;;;;;;;;;;1.30;99.90;;;;;;5136370;27;19927;-56
2022/01/08 00:14:15;;;;;;;;;;;0.90;99.90;;;;;;5147140;27;19948;-56
2022/01/08 00:16:41;;;;;;;;;;;1.60;99.90;;;;;;5137752;27;20392;-56
2022/01/08 00:19:07;;;;;;;;;;;0.90;99.90;;;;;;5141974;27;20072;-56
2022/01/08 00:21:33;;;;;;;;;;;1.30;99.90;;;;;;5145079;27;19972;-57
2022/01/08 00:23:59;;;;;;;;;;;1.30;99.90;;;;;;5132291;27;19931;-56
2022/01/08 00:26:24;;;;;;;;;;;1.00;99.90;;;;;;5147385;27;19931;-56
2022/01/08 00:28:50;;;;;;;;;;;1.00;99.90;;;;;;5137782;27;19930;-57
2022/01/08 00:31:16;;;;;;;;;;;1.00;99.90;;;;;;5145094;27;19927;-56
2022/01/08 00:33:41;;;;;;;;;;;1.10;99.90;;;;;;5136139;27;20018;-56
2022/01/08 00:36:07;;;;;;;;;;;1.00;99.90;;;;;;5147944;27;20269;-56
2022/01/08 00:38:33;;;;;;;;;;;1.30;99.90;;;;;;5135451;27;20258;-57
2022/01/08 00:40:58;;;;;;;;;;;1.00;99.90;;;;;;5147308;27;20017;-57
2022/01/08 00:43:24;;;;;;;;;;;1.90;99.90;;;;;;5139275;27;20373;-56
2022/01/08 00:45:50;;;;;;;;;;;1.40;99.90;;;;;;5146982;27;19934;-56
2022/01/08 00:48:15;;;;;;;;;;;0.90;99.90;;;;;;5134455;27;19930;-60
2022/01/08 00:50:41;;;;;;;;;;;0.90;99.90;;;;;;5144841;27;19927;-58
2022/01/08 00:53:06;;;;;;;;;;;0.90;99.90;;;;;;5140026;27;19930;-59
2022/01/08 00:55:32;;;;;;;;;;;0.90;99.90;;;;;;5137626;27;19990;-58
2022/01/08 00:57:58;;;;;;;;;;;1.20;99.90;;;;;;5130747;27;20373;-58
2022/01/08 01:00:23;;;;;;;;;;;0.90;99.90;;;;;;5133079;27;19930;-58
2022/01/08 01:02:49;;;;;;;;;;;0.90;99.90;;;;;;5147183;27;19934;-59
2022/01/08 01:05:15;;;;;;;;;;;0.90;99.90;;;;;;5139954;27;19978;-59
2022/01/08 01:07:41;;;;;;;;;;;0.80;99.90;;;;;;5140428;27;20356;-59
2022/01/08 01:10:07;;;;;;;;;;;0.90;99.90;;;;;;5133907;27;19950;-59
2022/01/08 01:12:33;;;;;;;;;;;0.90;99.90;;;;;;5145536;27;20372;-58
2022/01/08 01:14:58;;;;;;;;;;;0.90;99.90;;;;;;5138814;27;19934;-59
2022/01/08 01:17:24;;;;;;;;;;;0.90;99.90;;;;;;5137980;27;19934;-58
2022/01/08 01:19:50;;;;;;;;;;;0.80;99.90;;;;;;5130153;27;19934;-58
2022/01/08 01:22:18;;;;;;;;;;;0.90;99.90;;;;;;5146935;27;19958;-59
2022/01/08 01:24:45;;;;;;;;;;;0.90;99.90;;;;;;5137559;27;19962;-59
2022/01/08 01:30:06;;;;;;;;;;;0.90;99.90;;;;;;5132198;27;19976;-59
2022/01/08 01:48:46;;;;;;;;;;;3.00;99.90;;;;;;5144492;27;19930;-61
2022/01/08 01:51:21;;;;;;;;;;;1.00;99.90;;;;;;5142246;27;20264;-61
2022/01/08 01:53:47;;;;;;;;;;;1.00;99.90;;;;;;5137455;27;19927;-61
2022/01/08 01:56:17;;;;;;;;;;;1.00;99.90;;;;;;5148564;27;20002;-62
2022/01/08 01:58:42;;;;;;;;;;;1.10;99.90;;;;;;5140058;27;19934;-61
2022/01/08 02:01:08;;;;;;;;;;;1.10;99.90;;;;;;5142822;27;19919;-61
2022/01/08 02:03:34;;;;;;;;;;;1.10;99.90;;;;;;5136993;27;19970;-59
2022/01/08 02:06:00;;;;;;;;;;;1.70;99.90;;;;;;5148108;27;19927;-69
2022/01/08 02:08:25;;;;;;;;;;;1.20;99.90;;;;;;5136938;27;20002;-65
2022/01/08 02:10:51;;;;;;;;;;;1.30;99.90;;;;;;5145853;27;19941;-62
2022/01/08 02:13:23;;;;;;;;;;;1.20;99.90;;;;;;5144140;27;19988;-63
2022/01/08 02:15:52;;;;;;;;;;;1.30;99.90;;;;;;5135067;27;19962;-65
2022/01/08 02:18:18;;;;;;;;;;;1.20;99.90;;;;;;5149332;27;20011;-64
2022/01/08 02:20:43;;;;;;;;;;;1.20;99.90;;;;;;5139378;27;19934;-70
2022/01/08 02:23:09;;;;;;;;;;;1.20;99.90;;;;;;5142359;27;19923;-64
2022/01/08 02:25:35;;;;;;;;;;;1.20;99.90;;;;;;5146813;27;19926;-65
2022/01/08 02:28:03;;;;;;;;;;;1.20;99.90;;;;;;5135516;27;20404;-70
2022/01/08 02:30:29;;;;;;;;;;;1.20;99.90;;;;;;5148156;27;19931;-70
2022/01/08 02:32:54;;;;;;;;;;;1.20;99.90;;;;;;5138933;27;19923;-68
2022/01/08 02:35:22;;;;;;;;;;;1.70;99.90;;;;;;5143509;27;19930;-60
2022/01/08 02:37:50;;;;;;;;;;;1.10;99.90;;;;;;5136835;27;19949;-63
2022/01/08 02:40:18;;;;;;;;;;;1.10;99.90;;;;;;5147491;27;20095;-59
2022/01/08 02:42:52;;;;;;;;;;;1.10;99.90;;;;;;5144987;27;19927;-65
2022/01/08 02:45:20;;;;;;;;;;;1.10;99.90;;;;;;5143044;27;20296;-67
2022/01/08 02:47:46;;;;;;;;;;;1.00;99.90;;;;;;5136991;27;19930;-61
2022/01/08 02:50:12;;;;;;;;;;;1.00;99.90;;;;;;5149144;27;19923;-58
2022/01/08 02:52:44;;;;;;;;;;;1.80;99.90;;;;;;5137993;27;19927;-59
2022/01/08 02:55:10;;;;;;;;;;;1.00;99.90;;;;;;5142210;27;19923;-62
2022/01/08 02:57:36;;;;;;;;;;;1.00;99.90;;;;;;5144218;27;19927;-60
2022/01/08 03:00:04;;;;;;;;;;;1.00;99.90;;;;;;5135267;27;19926;-60
2022/01/08 03:02:29;;;;;;;;;;;0.90;99.90;;;;;;5148650;27;19923;-59
2022/01/08 03:04:55;;;;;;;;;;;0.90;99.90;;;;;;5142801;27;19934;-60
2022/01/08 03:07:21;;;;;;;;;;;0.80;99.90;;;;;;5140279;27;20373;-62
2022/01/08 03:09:56;;;;;;;;;;;0.80;99.90;;;;;;5136063;27;19966;-59
2022/01/08 03:12:21;;;;;;;;;;;0.80;99.90;;;;;;5135452;27;19935;-62
2022/01/08 03:14:47;;;;;;;;;;;0.80;99.90;;;;;;5139830;27;19923;-62
2022/01/08 03:17:12;;;;;;;;;;;0.70;99.90;;;;;;5142581;27;20029;-60
2022/01/08 03:19:39;;;;;;;;;;;0.70;99.90;;;;;;5137264;27;19976;-60
2022/01/08 03:22:05;;;;;;;;;;;0.70;99.90;;;;;;5148557;27;19953;-63
2022/01/08 03:24:31;;;;;;;;;;;1.30;99.90;;;;;;5136178;27;19927;-59
2022/01/08 03:26:57;;;;;;;;;;;1.00;99.90;;;;;;5143660;27;20417;-62
2022/01/08 03:29:23;;;;;;;;;;;0.60;99.90;;;;;;5146983;27;20367;-59
2022/01/08 03:31:48;;;;;;;;;;;0.60;99.90;;;;;;5149465;27;19934;-59
2022/01/08 03:34:14;;;;;;;;;;;0.60;99.90;;;;;;5139165;27;19927;-58
2022/01/08 03:36:40;;;;;;;;;;;0.60;99.90;;;;;;5149916;27;19923;-59
2022/01/08 03:39:05;;;;;;;;;;;0.60;99.90;;;;;;5145775;27;19931;-58
2022/01/08 03:41:31;;;;;;;;;;;0.60;99.90;;;;;;5150487;27;20041;-59
2022/01/08 03:43:57;;;;;;;;;;;0.60;99.90;;;;;;5138943;27;19967;-62
2022/01/08 03:46:26;;;;;;;;;;;0.50;99.90;;;;;;5151331;27;19931;-67
2022/01/08 03:49:13;;;;;;;;;;;0.50;99.90;;;;;;5143612;27;20136;-69
2022/01/08 03:51:40;;;;;;;;;;;0.50;99.90;;;;;;5141225;27;19934;-59
2022/01/08 03:54:06;;;;;;;;;;;0.50;99.90;;;;;;5152803;27;19923;-58
2022/01/08 03:56:31;;;;;;;;;;;0.50;99.90;;;;;;5140542;27;20378;-60
2022/01/08 03:58:57;;;;;;;;;;;0.40;99.90;;;;;;5153938;27;19923;-58
2022/01/08 04:01:23;;;;;;;;;;;0.40;99.90;;;;;;5142096;27;19977;-58
2022/01/08 04:03:48;;;;;;;;;;;0.40;99.90;;;;;;5138870;27;20421;-58
2022/01/08 04:06:14;;;;;;;;;;;0.50;99.90;;;;;;5152270;27;20064;-58
2022/01/08 04:08:39;;;;;;;;;;;0.50;99.90;;;;;;5141319;27;19923;-60
2022/01/08 04:11:05;;;;;;;;;;;0.40;99.90;;;;;;5145652;27;19927;-59
2022/01/08 04:13:34;;;;;;;;;;;0.40;99.90;;;;;;5126224;27;19976;-58
2022/01/08 04:16:11;;;;;;;;;;;0.40;99.90;;;;;;5151733;27;19970;-59
2022/01/08 04:18:36;;;;;;;;;;;0.40;99.90;;;;;;5139121;27;20402;-64
2022/01/08 04:23:46;;;;;;;;;;;0.40;99.90;;;;;;5150055;27;20370;-68
2022/01/08 04:26:12;;;;;;;;;;;0.40;99.90;;;;;;5151750;27;20017;-58
2022/01/08 04:28:37;;;;;;;;;;;0.40;99.90;;;;;;5140586;27;19927;-64
2022/01/08 04:31:03;;;;;;;;;;;0.40;99.90;;;;;;5144696;27;19927;-60
2022/01/08 04:33:29;;;;;;;;;;;0.40;99.90;;;;;;5134308;27;19924;-68
2022/01/08 04:35:55;;;;;;;;;;;0.40;99.90;;;;;;5151839;27;20383;-68
2022/01/08 04:38:21;;;;;;;;;;;0.40;99.90;;;;;;5137453;27;19923;-67
2022/01/08 04:40:47;;;;;;;;;;;1.10;99.90;;;;;;5149946;27;19959;-69
2022/01/08 04:43:13;;;;;;;;;;;1.20;99.90;;;;;;5143254;27;20390;-59
2022/01/08 04:45:38;;;;;;;;;;;0.50;99.90;;;;;;5133451;27;19934;-67
2022/01/08 04:48:04;;;;;;;;;;;0.50;99.90;;;;;;5149903;27;19935;-69
2022/01/08 04:50:30;;;;;;;;;;;0.70;99.90;;;;;;5138337;27;20017;-63
2022/01/08 04:52:56;;;;;;;;;;;0.50;99.90;;;;;;5144011;27;19927;-68
2022/01/08 04:55:22;;;;;;;;;;;0.50;99.90;;;;;;5145893;27;20246;-67
2022/01/08 04:57:47;;;;;;;;;;;0.50;99.90;;;;;;5137335;27;19927;-62
2022/01/08 05:00:14;;;;;;;;;;;0.50;99.90;;;;;;5142474;27;20370;-61
2022/01/08 05:02:39;;;;;;;;;;;0.50;99.90;;;;;;5149450;27;20010;-62
2022/01/08 05:05:05;;;;;;;;;;;0.80;99.90;;;;;;5141971;27;20341;-61
2022/01/08 05:07:31;;;;;;;;;;;0.50;99.90;;;;;;5141531;27;20258;-59
2022/01/08 05:09:56;;;;;;;;;;;1.50;99.90;;;;;;5134747;27;20400;-59
2022/01/08 05:12:23;;;;;;;;;;;0.50;99.90;;;;;;5149966;27;20338;-58
2022/01/08 05:14:48;;;;;;;;;;;0.50;99.90;;;;;;5141259;27;19927;-58
2022/01/08 05:17:14;;;;;;;;;;;0.60;99.90;;;;;;5142339;27;19976;-60
2022/01/08 05:19:45;;;;;;;;;;;0.60;99.90;;;;;;5138383;27;19924;-58
2022/01/08 05:22:20;;;;;;;;;;;0.60;99.90;;;;;;5148519;27;19923;-59
2022/01/08 05:24:45;;;;;;;;;;;0.60;99.90;;;;;;5139704;27;19930;-61
2022/01/08 05:27:15;;;;;;;;;;;0.60;99.90;;;;;;5142943;27;19923;-62
2022/01/08 05:29:41;;;;;;;;;;;1.20;99.90;;;;;;5134826;27;19930;-62
2022/01/08 05:32:07;;;;;;;;;;;0.60;99.90;;;;;;5130920;27;19975;-61
2022/01/08 05:34:33;;;;;;;;;;;0.60;99.90;;;;;;5147998;27;19928;-60
2022/01/08 05:36:59;;;;;;;;;;;0.60;99.90;;;;;;5141295;27;20334;-69
2022/01/08 05:39:25;;;;;;;;;;;0.60;99.90;;;;;;5057412;27;1797965;-65
2022/01/08 05:41:50;;;;;;;;;;;0.70;99.90;;;;;;5137462;27;19923;-66
2022/01/08 05:44:16;;;;;;;;;;;0.90;99.90;;;;;;5146057;27;19938;-65
2022/01/08 05:46:44;;;;;;;;;;;0.60;99.90;;;;;;5140104;27;19923;-59
2022/01/08 05:49:12;;;;;;;;;;;0.50;99.90;;;;;;5142511;27;19924;-62
2022/01/08 05:51:37;;;;;;;;;;;0.50;99.90;;;;;;5146536;27;19927;-58
2022/01/08 05:54:03;;;;;;;;;;;0.80;99.90;;;;;;5136682;27;20403;-65
2022/01/08 05:56:28;;;;;;;;;;;0.50;99.90;;;;;;5131245;27;20007;-61
2022/01/08 05:58:54;;;;;;;;;;;0.50;99.90;;;;;;5141443;27;19927;-60
2022/01/08 06:01:20;;;;;;;;;;;0.50;99.90;;;;;;5141408;27;20303;-59
2022/01/08 06:03:45;;;;;;;;;;;0.50;99.90;;;;;;5137128;27;19924;-63
2022/01/08 06:06:11;;;;;;;;;;;0.40;99.90;;;;;;5149806;27;19923;-61
2022/01/08 06:08:36;;;;;;;;;;;0.50;99.90;;;;;;5138452;27;19927;-58
2022/01/08 06:11:02;;;;;;;;;;;0.50;99.90;;;;;;5143957;27;19976;-59
2022/01/08 06:13:28;;;;;;;;;;;0.40;99.90;;;;;;5146429;27;19971;-60
2022/01/08 06:15:53;;;;;;;;;;;0.40;99.90;;;;;;5136405;27;19919;-59
2022/01/08 06:18:19;;;;;;;;;;;0.50;99.90;;;;;;5149005;27;20452;-63
2022/01/08 06:20:45;;;;;;;;;;;0.40;99.90;;;;;;5139935;27;19927;-59
2022/01/08 06:23:13;;;;;;;;;;;0.40;99.90;;;;;;5140740;27;19976;-67
2022/01/08 06:25:43;;;;;;;;;;;0.50;99.90;;;;;;5145876;27;19923;-68
2022/01/08 06:28:09;;;;;;;;;;;0.40;99.90;;;;;;5144875;27;19968;-60
2022/01/08 06:30:35;;;;;;;;;;;0.40;99.90;;;;;;5136962;27;20350;-63
2022/01/08 06:33:01;;;;;;;;;;;0.40;99.90;;;;;;5140549;27;19979;-59
2022/01/08 06:35:27;;;;;;;;;;;0.30;99.90;;;;;;5140308;27;19989;-65
2022/01/08 06:37:52;;;;;;;;;;;0.20;99.90;;;;;;5147245;27;19934;-63
2022/01/08 06:40:18;;;;;;;;;;;0.20;99.90;;;;;;5136118;27;19929;-65
2022/01/08 06:42:43;;;;;;;;;;;0.20;99.90;;;;;;5132405;27;19995;-66
2022/01/08 06:45:09;;;;;;;;;;;0.20;99.90;;;;;;5142602;27;19971;-66
2022/01/08 06:47:35;;;;;;;;;;;0.20;99.90;;;;;;5138401;27;19931;-69
2022/01/08 06:50:00;;;;;;;;;;;0.20;99.90;;;;;;5148715;27;19930;-66
2022/01/08 06:52:26;;;;;;;;;;;0.20;99.90;;;;;;5148309;27;19935;-65
2022/01/08 06:54:52;;;;;;;;;;;0.20;99.90;;;;;;5140093;27;19966;-63
2022/01/08 06:57:17;;;;;;;;;;;0.40;99.90;;;;;;5140089;27;19923;-69
2022/01/08 06:59:43;;;;;;;;;;;0.50;99.90;;;;;;5147504;27;19923;-69
2022/01/08 07:02:09;;;;;;;;;;;0.10;99.90;;;;;;5135702;27;20254;-68
2022/01/08 07:04:34;;;;;;;;;;;0.00;99.90;;;;;;5137954;27;19927;-68
2022/01/08 07:07:00;;;;;;;;;;;0.10;99.90;;;;;;5146771;27;20476;-66
2022/01/08 07:09:25;;;;;;;;;;;0.00;99.90;;;;;;5139393;27;19924;-68
2022/01/08 07:11:51;;;;;;;;;;;0.10;99.90;;;;;;5148794;27;20352;-69
2022/01/08 07:14:16;;;;;;;;;;;0.10;99.90;;;;;;5135388;27;20384;-65
2022/01/08 07:16:42;;;;;;;;;;;0.50;99.90;;;;;;5144103;27;19953;-59
2022/01/08 07:19:08;;;;;;;;;;;0.10;99.90;;;;;;5142111;27;19927;-59
2022/01/08 07:21:34;;;;;;;;;;;0.10;99.90;;;;;;5138080;27;20369;-61
2022/01/08 07:23:59;;;;;;;;;;;0.10;99.90;;;;;;5147313;27;20292;-58
2022/01/08 07:26:25;;;;;;;;;;;0.10;99.90;;;;;;5147943;27;19970;-58
2022/01/08 07:28:50;;;;;;;;;;;0.00;99.90;;;;;;5139959;27;19951;-58
2022/01/08 07:31:16;;;;;;;;;;;0.00;99.90;;;;;;5139689;27;20421;-59
2022/01/08 07:33:42;;;;;;;;;;;0.10;99.90;;;;;;5146726;27;19945;-60
2022/01/08 07:36:07;;;;;;;;;;;0.10;99.90;;;;;;5130297;27;19931;-61
2022/01/08 07:38:33;;;;;;;;;;;0.10;99.90;;;;;;5134197;27;19975;-61
2022/01/08 07:40:58;;;;;;;;;;;0.10;99.90;;;;;;5133937;27;20294;-59
2022/01/08 07:43:24;;;;;;;;;;;0.10;99.90;;;;;;5130409;27;20043;-59
2022/01/08 07:45:49;;;;;;;;;;;0.10;99.90;;;;;;5131179;27;20014;-63
2022/01/08 07:48:15;;;;;;;;;;;0.10;99.90;;;;;;5137371;27;20347;-64
2022/01/08 07:50:41;;;;;;;;;;;0.10;99.90;;;;;;5138140;27;19930;-67
2022/01/08 07:53:06;;;;;;;;;;;0.10;99.90;;;;;;5139413;27;20303;-60
2022/01/08 07:55:32;;;;;;;;;;;0.10;99.90;;;;;;5138560;27;19923;-63
2022/01/08 07:57:57;;;;;;;;;;;0.10;99.90;;;;;;5129993;27;19923;-60
2022/01/08 08:00:23;;;;;;;;;;;0.10;99.90;;;;;;5135191;27;19919;-62
2022/01/08 08:02:49;;;;;;;;;;;0.10;99.90;;;;;;5146591;27;20009;-61
2022/01/08 08:05:14;;;;;;;;;;;0.10;99.90;;;;;;5140442;27;19967;-63
2022/01/08 08:07:41;;;;;;;;;;;0.10;99.90;;;;;;5139228;27;19923;-68
2022/01/08 08:10:11;;;;;;;;;;;0.10;99.90;;;;;;5140315;27;19975;-62
2022/01/08 08:12:37;;;;;;;;;;;0.20;99.90;;;;;;5130785;27;19976;-61
2022/01/08 08:15:06;;;;;;;;;;;0.10;99.90;;;;;;5137989;27;19962;-67
2022/01/08 08:17:33;;;;;;;;;;;0.20;99.90;;;;;;5116292;27;20590;-62
2022/01/08 08:19:59;;;;;;;;;;;0.30;99.90;;;;;;5134589;27;19927;-63
2022/01/08 08:22:24;;;;;;;;;;;0.30;99.90;;;;;;5138420;27;20693;-64
2022/01/08 08:24:50;;;;;;;;;;;0.30;99.90;;;;;;5136949;27;19975;-65
2022/01/08 08:27:16;;;;;;;;;;;1.30;99.90;;;;;;5135666;27;19991;-61
2022/01/08 08:29:41;;;;;;;;;;;0.30;99.90;;;;;;5135832;27;20281;-70
2022/01/08 08:32:07;;;;;;;;;;;0.40;99.90;;;;;;5138508;27;20373;-68
2022/01/08 08:34:33;;;;;;;;;;;0.40;99.90;;;;;;5136753;27;19931;-64
2022/01/08 08:36:59;;;;;;;;;;;0.50;99.90;;;;;;5137142;27;19923;-68
2022/01/08 08:39:25;;;;;;;;;;;0.50;99.90;;;;;;5138168;27;20309;-58
2022/01/08 08:41:51;;;;;;;;;;;0.60;99.90;;;;;;5136815;27;20017;-64
2022/01/08 08:44:16;;;;;;;;;;;0.60;99.90;;;;;;5139813;27;20006;-58
2022/01/08 08:46:42;;;;;;;;;;;0.60;99.90;;;;;;5141418;27;19930;-62
2022/01/08 08:49:08;;;;;;;;;;;0.70;99.90;;;;;;5138011;27;19938;-62
2022/01/08 08:51:34;;;;;;;;;;;0.80;99.90;;;;;;5134906;27;19933;-63
2022/01/08 08:53:59;;;;;;;;;;;0.90;99.90;;;;;;5134428;27;19924;-69
2022/01/08 08:56:25;;;;;;;;;;;0.90;99.90;;;;;;5135996;27;20301;-59
2022/01/08 08:58:50;;;;;;;;;;;1.20;99.90;;;;;;5138010;27;19923;-61
2022/01/08 09:01:16;;;;;;;;;;;1.00;99.90;;;;;;5134125;27;20019;-59
2022/01/08 09:03:41;;;;;;;;;;;1.10;99.90;;;;;;5146845;27;20378;-59
2022/01/08 09:06:07;;;;;;;;;;;1.10;99.90;;;;;;5143796;27;19930;-58
2022/01/08 09:08:33;;;;;;;;;;;1.10;99.90;;;;;;5149272;27;20316;-61
2022/01/08 09:10:58;;;;;;;;;;;1.20;99.90;;;;;;5150244;27;19923;-68
2022/01/08 09:13:25;;;;;;;;;;;1.20;99.90;;;;;;5139435;27;19927;-67
2022/01/08 09:15:50;;;;;;;;;;;2.00;99.90;;;;;;5143865;27;20013;-60
2022/01/08 09:18:16;;;;;;;;;;;1.30;99.90;;;;;;5134314;27;20050;-58
2022/01/08 09:20:42;;;;;;;;;;;1.30;99.90;;;;;;5147541;27;19976;-58
2022/01/08 09:23:08;;;;;;;;;;;1.20;99.90;;;;;;5142434;27;20038;-58
2022/01/08 09:25:33;;;;;;;;;;;1.30;99.90;;;;;;5135517;27;20339;-61
2022/01/08 09:27:59;;;;;;;;;;;1.30;99.90;;;;;;5133067;27;19931;-62
2022/01/08 09:30:25;;;;;;;;;;;1.40;99.90;;;;;;5130141;27;20292;-61
2022/01/08 09:32:51;;;;;;;;;;;1.40;99.90;;;;;;5135851;27;19957;-59
2022/01/08 09:35:17;;;;;;;;;;;1.50;99.90;;;;;;5135432;27;19927;-59
2022/01/08 09:37:43;;;;;;;;;;;1.50;99.90;;;;;;5137195;27;19919;-59
2022/01/08 09:40:10;;;;;;;;;;;1.70;99.90;;;;;;5137697;27;20429;-56
2022/01/08 09:42:36;;;;;;;;;;;1.80;99.90;;;;;;5148148;27;19923;-56
2022/01/08 09:45:02;;;;;;;;;;;3.00;99.90;;;;;;5142145;27;19927;-55
2022/01/08 09:47:28;;;;;;;;;;;2.10;99.90;;;;;;5133723;27;19927;-56
2022/01/08 09:49:54;;;;;;;;;;;2.00;99.90;;;;;;5136245;27;19931;-55
2022/01/08 09:52:20;;;;;;;;;;;2.00;99.90;;;;;;5141568;27;19931;-57
2022/01/08 09:54:45;;;;;;;;;;;2.40;99.90;;;;;;5142016;27;19967;-56
2022/01/08 09:57:11;;;;;;;;;;;2.00;99.90;;;;;;5140948;27;20473;-56
2022/01/08 09:59:36;;;;;;;;;;;2.10;99.90;;;;;;5132118;27;19927;-56
2022/01/08 10:02:02;;;;;;;;;;;2.10;99.90;;;;;;5134683;27;19974;-56
2022/01/08 10:04:35;;;;;;;;;;;2.20;99.90;;;;;;5134730;27;19974;-56
2022/01/08 10:07:16;;;;;;;;;;;2.20;99.90;;;;;;5127952;27;19933;-55
2022/01/08 10:10:00;;;;;;;;;;;2.10;99.90;;;;;;5130642;27;19935;-55
2022/01/08 10:12:42;;;;;;;;;;;2.30;99.90;;;;;;5131984;27;19927;-56
2022/01/08 10:17:53;;;;;;;;;;;2.40;99.90;;;;;;5140535;27;20404;-56
2022/01/08 10:20:29;;;;;;;;;;;2.80;99.90;;;;;;5133379;27;19927;-55
2022/01/08 10:23:15;;;;;;;;;;;2.50;99.90;;;;;;5143187;27;19974;-55
2022/01/08 10:25:42;;;;;;;;;;;2.60;99.90;;;;;;5127457;27;19927;-56
2022/01/08 10:28:08;;;;;;;;;;;3.10;99.90;;;;;;5145696;27;19977;-55
2022/01/08 10:30:33;;;;;;;;;;;2.80;99.90;;;;;;5134090;27;19978;-55
2022/01/08 10:33:00;;;;;;;;;;;2.80;99.90;;;;;;5137020;27;19934;-55
2022/01/08 10:35:44;;;;;;;;;;;2.80;99.90;;;;;;5142164;27;19938;-56
2022/01/08 10:38:09;;;;;;;;;;;2.90;99.90;;;;;;5141447;27;20005;-56
2022/01/08 10:40:35;;;;;;;;;;;2.90;99.90;;;;;;5137787;27;19932;-56
2022/01/08 10:43:01;;;;;;;;;;;3.00;99.90;;;;;;5129774;27;19935;-56
2022/01/08 10:45:32;;;;;;;;;;;2.90;99.90;;;;;;5127634;27;19934;-55
2022/01/08 10:48:04;;;;;;;;;;;3.00;99.90;;;;;;5137572;27;19927;-55
2022/01/08 10:50:30;;;;;;;;;;;3.00;99.90;;;;;;5133026;27;19931;-55
2022/01/08 10:52:57;;;;;;;;;;;3.10;99.90;;;;;;5131406;27;20370;-56
2022/01/08 10:55:32;;;;;;;;;;;3.10;99.90;;;;;;5131165;27;20026;-56
2022/01/08 10:57:58;;;;;;;;;;;3.10;99.90;;;;;;5129559;27;20004;-57
2022/01/08 11:00:31;;;;;;;;;;;3.70;99.90;;;;;;5129705;27;20369;-57
2022/01/08 11:02:56;;;;;;;;;;;3.20;99.90;;;;;;5132975;27;20049;-57
2022/01/08 11:05:22;;;;;;;;;;;3.60;99.90;;;;;;5135628;27;20010;-55
2022/01/08 11:07:47;;;;;;;;;;;3.20;99.90;;;;;;5138093;27;20399;-56
2022/01/08 11:10:22;;;;;;;;;;;3.20;99.90;;;;;;5131132;27;19935;-56
2022/01/08 11:12:51;;;;;;;;;;;3.30;99.90;;;;;;5136026;27;19927;-56
2022/01/08 11:17:50;;;;;;;;;;;3.30;99.90;;;;;;5130020;27;20400;-57
2022/01/08 11:20:16;;;;;;;;;;;3.30;99.90;;;;;;5125521;27;19991;-57
2022/01/08 11:22:48;;;;;;;;;;;4.20;99.90;;;;;;5129218;27;19927;-56
2022/01/08 11:25:16;;;;;;;;;;;3.40;99.90;;;;;;5131365;27;19934;-56
2022/01/08 11:28:01;;;;;;;;;;;3.50;99.90;;;;;;5125309;27;19971;-57
2022/01/08 11:30:28;;;;;;;;;;;3.50;99.90;;;;;;5130309;27;20056;-56
2022/01/08 11:32:56;;;;;;;;;;;3.60;99.90;;;;;;5127339;27;19966;-56
2022/01/08 11:35:24;;;;;;;;;;;3.60;99.90;;;;;;5129959;27;20035;-58
2022/01/08 11:37:51;;;;;;;;;;;3.70;99.90;;;;;;5127317;27;19932;-62
2022/01/08 11:40:18;;;;;;;;;;;3.60;99.90;;;;;;5129905;27;19927;-60
2022/01/08 11:42:44;;;;;;;;;;;3.60;99.90;;;;;;5136018;27;19981;-58
2022/01/08 11:45:12;;;;;;;;;;;3.50;99.90;;;;;;5130739;27;19927;-56
2022/01/08 11:47:40;;;;;;;;;;;3.60;99.90;;;;;;5134194;27;20331;-56
2022/01/08 11:50:06;;;;;;;;;;;3.70;99.90;;;;;;5132122;27;20022;-57
2022/01/08 11:52:32;;;;;;;;;;;3.80;99.90;;;;;;5136023;27;20010;-57
2022/01/08 11:54:57;;;;;;;;;;;3.80;99.90;;;;;;5143322;27;20009;-61
2022/01/08 11:57:24;;;;;;;;;;;4.00;99.90;;;;;;5144181;27;19934;-61
2022/01/08 11:59:57;;;;;;;;;;;4.10;99.90;;;;;;5134995;27;19935;-62
2022/01/08 12:02:33;;;;;;;;;;;4.10;99.90;;;;;;5136174;27;20023;-64
2022/01/08 12:04:59;;;;;;;;;;;4.30;99.90;;;;;;5140653;27;19933;-60
2022/01/08 12:07:34;;;;;;;;;;;4.40;99.90;;;;;;5137748;27;19932;-61
2022/01/08 12:10:11;;;;;;;;;;;4.40;99.90;;;;;;5138696;27;19980;-67
2022/01/08 12:12:46;;;;;;;;;;;4.30;99.90;;;;;;5145405;27;20014;-66
2022/01/08 12:15:12;;;;;;;;;;;4.30;99.90;;;;;;5141638;27;19987;-61
2022/01/08 12:17:57;;;;;;;;;;;4.30;99.90;;;;;;5136228;27;20055;-58
2022/01/08 12:20:39;;;;;;;;;;;4.30;99.90;;;;;;5133498;27;19987;-68
2022/01/08 12:23:23;;;;;;;;;;;4.30;99.90;;;;;;5141906;27;20007;-59
2022/01/08 12:25:48;;;;;;;;;;;4.30;99.90;;;;;;5133249;27;19935;-57
2022/01/08 12:28:33;;;;;;;;;;;4.30;99.90;;;;;;5129349;27;19922;-67
2022/01/08 12:31:17;;;;;;;;;;;4.30;99.90;;;;;;5135044;27;20395;-64
2022/01/08 12:33:43;;;;;;;;;;;4.40;99.90;;;;;;5138033;27;20063;-61
2022/01/08 12:36:26;;;;;;;;;;;4.30;99.90;;;;;;5132811;27;20014;-59
2022/01/08 12:39:00;;;;;;;;;;;4.20;99.90;;;;;;5143278;27;19934;-69
2022/01/08 12:41:26;;;;;;;;;;;4.20;99.90;;;;;;5134764;27;19974;-63
2022/01/08 12:43:53;;;;;;;;;;;4.70;99.90;;;;;;5143717;27;20035;-68
2022/01/08 12:46:20;;;;;;;;;;;4.20;99.90;;;;;;5147904;27;20379;-64
2022/01/08 12:49:04;;;;;;;;;;;4.20;99.90;;;;;;5138173;27;20489;-65
2022/01/08 12:51:44;;;;;;;;;;;4.20;99.90;;;;;;5138542;27;20097;-62
2022/01/08 12:54:10;;;;;;;;;;;4.20;99.90;;;;;;5146896;27;19927;-66
2022/01/08 12:56:44;;;;;;;;;;;4.10;99.90;;;;;;5148862;27;19930;-56
2022/01/08 12:59:10;;;;;;;;;;;4.10;99.90;;;;;;5148616;27;19927;-56
2022/01/08 13:01:37;;;;;;;;;;;4.10;99.90;;;;;;5136659;27;20274;-56
2022/01/08 13:04:03;;;;;;;;;;;4.10;99.90;;;;;;5135860;27;19980;-57
2022/01/08 13:06:34;;;;;;;;;;;4.10;99.90;;;;;;5146572;27;19927;-57
2022/01/08 13:09:00;;;;;;;;;;;4.10;99.90;;;;;;5134250;27;20027;-56
2022/01/08 13:11:28;;;;;;;;;;;4.10;99.90;;;;;;5131439;27;19928;-56
2022/01/08 13:14:00;;;;;;;;;;;4.00;99.90;;;;;;5144118;27;19938;-56
2022/01/08 13:16:25;;;;;;;;;;;4.10;99.90;;;;;;5129192;27;19949;-56
2022/01/08 13:18:55;;;;;;;;;;;4.10;99.90;;;;;;5134587;27;20453;-56
2022/01/08 13:21:32;;;;;;;;;;;4.10;99.90;;;;;;5130332;27;19972;-58
2022/01/08 13:23:59;;;;;;;;;;;4.10;99.90;;;;;;5127710;27;19966;-56
2022/01/08 13:26:29;;;;;;;;;;;4.00;99.90;;;;;;5140657;27;20428;-56
2022/01/08 13:28:54;;;;;;;;;;;3.90;99.90;;;;;;5142581;27;20400;-57
2022/01/08 13:31:20;;;;;;;;;;;3.90;99.90;;;;;;5139637;27;19981;-56
2022/01/08 13:33:55;;;;;;;;;;;3.90;99.90;;;;;;5129910;27;20052;-59
2022/01/08 13:36:21;;;;;;;;;;;3.90;99.90;;;;;;5132830;27;20389;-58
2022/01/08 13:38:46;;;;;;;;;;;3.90;99.90;;;;;;5138513;27;19934;-58
2022/01/08 13:41:13;;;;;;;;;;;3.90;99.90;;;;;;5146505;27;19927;-57
2022/01/08 13:43:54;;;;;;;;;;;3.80;99.90;;;;;;5135539;27;19927;-58
2022/01/08 13:46:20;;;;;;;;;;;3.80;99.90;;;;;;5146443;27;19948;-58
2022/01/08 13:48:46;;;;;;;;;;;3.80;99.90;;;;;;5139958;27;19927;-57
2022/01/08 13:51:11;;;;;;;;;;;3.70;99.90;;;;;;5138029;27;19962;-56
2022/01/08 13:53:37;;;;;;;;;;;3.70;99.90;;;;;;5142026;27;20036;-59
2022/01/08 13:56:03;;;;;;;;;;;3.70;99.90;;;;;;5134020;27;20286;-56
2022/01/08 13:58:29;;;;;;;;;;;3.70;99.90;;;;;;5143968;27;19931;-57
2022/01/08 14:01:00;;;;;;;;;;;3.90;99.90;;;;;;5119228;27;19938;-57
2022/01/08 14:03:38;;;;;;;;;;;3.60;99.90;;;;;;5131989;27;20377;-59
2022/01/08 14:06:04;;;;;;;;;;;3.60;99.90;;;;;;5129579;27;20387;-60
2022/01/08 14:08:30;;;;;;;;;;;3.50;99.90;;;;;;5130420;27;19950;-58
2022/01/08 14:10:58;;;;;;;;;;;3.50;99.90;;;;;;5134722;27;20693;-58
2022/01/08 14:13:25;;;;;;;;;;;3.50;99.90;;;;;;5135093;27;19927;-60
2022/01/08 14:16:01;;;;;;;;;;;3.50;99.90;;;;;;5145408;27;19927;-58
2022/01/08 14:18:28;;;;;;;;;;;3.40;99.90;;;;;;5119061;27;20389;-58
2022/01/08 14:20:57;;;;;;;;;;;3.40;99.90;;;;;;5128869;27;19928;-57
2022/01/08 14:23:27;;;;;;;;;;;3.40;99.90;;;;;;5130913;27;19927;-60
2022/01/08 14:25:52;;;;;;;;;;;3.30;99.90;;;;;;5128546;27;19928;-56
2022/01/08 14:28:24;;;;;;;;;;;3.50;99.90;;;;;;5133756;27;19934;-59
2022/01/08 14:30:50;;;;;;;;;;;3.30;99.90;;;;;;5134454;27;20296;-56
2022/01/08 14:33:16;;;;;;;;;;;3.30;99.90;;;;;;5137948;27;19926;-57
2022/01/08 14:35:42;;;;;;;;;;;3.30;99.90;;;;;;5133674;27;19927;-56
2022/01/08 14:38:08;;;;;;;;;;;3.20;99.90;;;;;;5138518;27;20280;-59
2022/01/08 14:40:35;;;;;;;;;;;3.20;99.90;;;;;;5134767;27;20375;-56
2022/01/08 14:43:10;;;;;;;;;;;3.20;99.90;;;;;;5137005;27;19927;-58
2022/01/08 14:45:37;;;;;;;;;;;3.20;99.90;;;;;;5139752;27;19927;-57
2022/01/08 14:48:15;;;;;;;;;;;3.10;99.90;;;;;;5141184;27;19927;-57
2022/01/08 14:50:41;;;;;;;;;;;3.10;99.90;;;;;;5132224;27;20385;-59
2022/01/08 14:53:07;;;;;;;;;;;3.10;99.90;;;;;;5138173;27;19927;-58
2022/01/08 14:55:33;;;;;;;;;;;3.00;99.90;;;;;;5144611;27;20045;-59
2022/01/08 14:57:59;;;;;;;;;;;3.10;99.90;;;;;;5146831;27;19927;-59
2022/01/08 15:00:25;;;;;;;;;;;3.00;99.90;;;;;;5133773;27;19980;-56